Myrtle Beach, SC

9:34 AM EST on December 18, 2014 (GMT -0500)
Myrtle Beach International | Change Station
CLOSE
Current Station
Airport
Location: Myrtle Beach,
Elevation: 26 ft
Nearby Weather Stations

Elev 26 ft 33.68 °N, 78.93 °W | Updated 49 minutes ago

Partly Cloudy
Partly Cloudy
48 °F
Feels Like 48 °F
N
10
Wind Variable Wind from NNE

Today
High -- | Low -- °F
--% Chance of Precip.
Yesterday
High -- | Low -- °F
Precip. -- in
7:14 AM 5:10 PM
Waning Crescent, 14% visible
Pressure 30.18 in
Visibility 10.0 miles
Clouds Clear
Dew Point 37 °F
Humidity 66%
Rainfall 0.00 in
Snow Depth Not available.
UV 1 out of 12
Pollen 2.70 out of 12
Air Quality Not available.
Flu Activity Not available.
METAR KMYR 181345Z 03009KT 10SM CLR 09/03 A3018

More Conditions Fewer Conditions

Pressure 30.18 in
Visibility 10.0 miles
Clouds Clear
Dew Point 37 °F
Humidity 66%
Rainfall 0.00 in
Snow Depth Not available.
UV 1 out of 12
Pollen 2.70 out of 12
Air Quality Not available.
Flu Activity Not available.
METAR KMYR 181345Z 03009KT 10SM CLR 09/03 A3018

More Conditions Fewer Conditions

10-Day Weather Forecast

Almanac

Astronomy

Dec. 18, 2014 Rise Set
Actual Time
Civil Twilight
Nautical Twilight
Astronomical Twilight
Moon
Length of Visible Light
Length of Day
Tomorrow will be .
, % of the Moon is Illuminated

Today's Extremes

State Highs State Lows

Community

WunderPhotos

Upload Photos

1,778,929 photos uploaded!

WunderBlogs® & News

Nearby

Air Quality

  Air Quality AQ Index Pollutant
Not available.

Snow Depth

Station Depth Elevation

Earthquake Activity

City Distance Mag. Time & Date
Minimum magnitude displayed is 2.5.

Coastal Water Temperatures

Place Temperature

Nearby Weather Stations